createdAt,value
2023-03-29T00:00:08.097Z,64.79
2023-03-29T00:02:35.630Z,63.92
2023-03-29T00:05:04.905Z,64.52
2023-03-29T00:07:33.814Z,63.98
2023-03-29T00:10:01.484Z,64.60
2023-03-29T00:12:29.281Z,64.82
2023-03-29T00:14:57.065Z,64.66
2023-03-29T00:17:24.697Z,63.75
2023-03-29T00:19:52.219Z,64.10
2023-03-29T00:22:21.383Z,64.27
2023-03-29T00:24:49.151Z,64.55
2023-03-29T00:27:17.320Z,63.75
2023-03-29T00:29:44.771Z,63.98
2023-03-29T00:32:13.031Z,64.09
2023-03-29T00:34:42.581Z,63.63
2023-03-29T00:37:10.524Z,63.85
2023-03-29T00:39:41.966Z,63.53
2023-03-29T00:42:12.676Z,63.00
2023-03-29T00:45:01.768Z,63.31
2023-03-29T00:47:32.236Z,63.06
2023-03-29T00:50:04.057Z,63.92
2023-03-29T00:52:33.087Z,64.52
2023-03-29T00:55:07.636Z,63.18
2023-03-29T00:57:35.690Z,63.74
2023-03-29T01:00:05.772Z,63.80
2023-03-29T01:02:35.331Z,64.11
2023-03-29T01:05:07.066Z,63.82
2023-03-29T01:07:39.498Z,63.76
2023-03-29T01:10:12.683Z,64.38
2023-03-29T01:12:45.393Z,64.27
2023-03-29T01:15:15.251Z,63.75
2023-03-29T01:17:50.003Z,63.72
2023-03-29T01:20:22.888Z,64.29
2023-03-29T01:23:05.299Z,63.78
2023-03-29T01:25:42.843Z,63.71
2023-03-29T01:28:15.650Z,63.26
2023-03-29T01:30:49.403Z,63.47
2023-03-29T01:33:23.314Z,63.07
2023-03-29T01:35:57.523Z,63.81
2023-03-29T01:38:28.986Z,63.60
2023-03-29T01:40:56.585Z,63.15
2023-03-29T01:43:32.364Z,63.46
2023-03-29T01:46:05.824Z,64.09
2023-03-29T01:48:42.477Z,63.62
2023-03-29T01:51:16.062Z,63.45
2023-03-29T01:53:48.445Z,63.50
2023-03-29T01:56:19.509Z,62.81
2023-03-29T01:58:52.568Z,63.18
2023-03-29T02:01:23.886Z,62.60
2023-03-29T02:03:57.493Z,62.72
2023-03-29T02:06:27.212Z,63.28
2023-03-29T02:08:55.603Z,62.81
2023-03-29T02:11:25.844Z,63.22
2023-03-29T02:13:54.697Z,62.69
2023-03-29T02:16:22.673Z,62.78
2023-03-29T02:18:53.154Z,62.46
2023-03-29T02:21:26.554Z,62.64
2023-03-29T02:23:57.203Z,63.45
2023-03-29T02:26:24.740Z,62.93
2023-03-29T02:28:54.069Z,63.47
2023-03-29T02:31:26.477Z,63.28
2023-03-29T02:34:00.313Z,62.72
2023-03-29T02:36:32.957Z,63.50
2023-03-29T02:39:04.464Z,63.13
2023-03-29T02:41:33.393Z,62.29
2023-03-29T02:44:05.008Z,62.54
2023-03-29T02:46:32.634Z,63.28
2023-03-29T02:49:01.024Z,62.12
2023-03-29T02:51:32.710Z,62.54
2023-03-29T02:54:03.943Z,61.88
2023-03-29T02:56:31.676Z,63.10
2023-03-29T02:58:59.088Z,62.91
2023-03-29T03:01:28.106Z,62.59
2023-03-29T03:03:55.669Z,62.52
2023-03-29T03:06:23.963Z,62.79
2023-03-29T03:08:51.454Z,61.32
2023-03-29T03:11:19.307Z,61.58
2023-03-29T03:13:46.754Z,62.08
2023-03-29T03:16:14.313Z,62.34
2023-03-29T03:18:43.896Z,61.29
2023-03-29T03:21:11.391Z,61.09
2023-03-29T03:23:38.830Z,61.56
2023-03-29T03:26:06.301Z,62.20
2023-03-29T03:28:34.160Z,62.69
2023-03-29T03:31:01.820Z,62.79
2023-03-29T03:33:29.524Z,61.44
2023-03-29T03:36:02.995Z,62.12
2023-03-29T03:38:30.949Z,60.97
2023-03-29T03:40:58.797Z,62.33
2023-03-29T03:43:26.910Z,62.28
2023-03-29T03:45:54.398Z,60.96
2023-03-29T03:48:22.933Z,60.99
2023-03-29T03:50:51.492Z,61.47
2023-03-29T03:53:21.130Z,61.46
2023-03-29T03:55:49.083Z,62.43
2023-03-29T03:58:16.626Z,61.49
2023-03-29T04:00:44.459Z,62.41
2023-03-29T04:03:12.443Z,61.65
2023-03-29T04:05:40.820Z,62.51
2023-03-29T04:08:08.922Z,61.92
2023-03-29T04:10:37.970Z,63.46
2023-03-29T04:13:06.107Z,63.35
2023-03-29T04:15:35.654Z,63.22
2023-03-29T04:18:03.171Z,63.46
2023-03-29T04:20:30.904Z,64.04
2023-03-29T04:22:58.377Z,63.08
2023-03-29T04:25:25.910Z,64.01
2023-03-29T04:27:54.719Z,64.37
2023-03-29T04:30:22.276Z,63.97
2023-03-29T04:32:49.820Z,63.23
2023-03-29T04:35:17.837Z,63.28
2023-03-29T04:37:45.352Z,63.43
2023-03-29T04:40:14.818Z,64.26
2023-03-29T04:42:44.246Z,63.48
2023-03-29T04:45:14.072Z,64.11
2023-03-29T04:47:43.439Z,63.87
2023-03-29T04:50:11.301Z,63.49
2023-03-29T04:52:39.202Z,64.42
2023-03-29T04:55:07.940Z,63.91
2023-03-29T04:57:35.459Z,63.48
2023-03-29T05:00:07.539Z,63.76
2023-03-29T05:02:36.678Z,64.68
2023-03-29T05:05:04.807Z,64.51
2023-03-29T05:07:32.224Z,63.58
2023-03-29T05:09:59.693Z,64.15
2023-03-29T05:12:27.123Z,63.99
2023-03-29T05:14:54.651Z,63.97
2023-03-29T05:17:22.454Z,63.57
2023-03-29T05:19:51.232Z,64.32
2023-03-29T05:22:20.095Z,64.78
2023-03-29T05:24:47.742Z,65.58
2023-03-29T05:27:15.205Z,64.91
2023-03-29T05:29:43.473Z,65.95
2023-03-29T05:32:11.242Z,66.34
2023-03-29T05:34:39.101Z,66.86
2023-03-29T05:37:08.150Z,68.42
2023-03-29T05:39:37.997Z,68.29
2023-03-29T05:42:06.220Z,69.74
2023-03-29T05:44:34.178Z,69.63
2023-03-29T05:47:01.857Z,68.78
2023-03-29T05:49:29.348Z,70.19
2023-03-29T05:51:56.995Z,70.06
2023-03-29T05:54:26.410Z,69.75
2023-03-29T05:56:53.940Z,70.07
2023-03-29T05:59:23.496Z,69.70
2023-03-29T06:01:51.864Z,70.78
2023-03-29T06:04:19.469Z,71.51
2023-03-29T06:06:48.487Z,71.30
2023-03-29T06:09:15.930Z,69.80
2023-03-29T06:11:45.018Z,69.83
2023-03-29T06:14:13.517Z,70.43
2023-03-29T06:16:42.807Z,69.35
2023-03-29T06:19:10.498Z,69.60
2023-03-29T06:21:38.013Z,69.97
2023-03-29T06:24:06.684Z,70.59
2023-03-29T06:26:34.192Z,70.79
2023-03-29T06:29:04.192Z,70.16
2023-03-29T06:31:31.883Z,69.14
2023-03-29T06:33:59.420Z,69.17
2023-03-29T06:36:26.873Z,68.99
2023-03-29T06:38:55.264Z,69.11
2023-03-29T06:41:23.772Z,68.43
2023-03-29T06:43:51.325Z,67.61
2023-03-29T06:46:20.252Z,67.73
2023-03-29T06:48:48.186Z,67.59
2023-03-29T06:51:15.843Z,67.62
2023-03-29T06:53:43.334Z,66.81
2023-03-29T06:56:11.119Z,66.53
2023-03-29T06:58:39.038Z,66.56
2023-03-29T07:01:07.429Z,66.62
2023-03-29T07:03:36.288Z,66.78
2023-03-29T07:06:09.823Z,67.05
2023-03-29T07:08:43.227Z,67.06
2023-03-29T07:11:13.155Z,65.93
2023-03-29T07:13:42.303Z,65.62
2023-03-29T07:16:12.479Z,65.91
2023-03-29T07:18:42.770Z,65.38
2023-03-29T07:21:11.576Z,65.27
2023-03-29T07:23:39.370Z,65.44
2023-03-29T07:26:07.998Z,65.84
2023-03-29T07:28:37.219Z,65.18
2023-03-29T07:31:06.662Z,65.78
2023-03-29T07:33:34.306Z,65.23
2023-03-29T07:36:03.385Z,64.89
2023-03-29T07:38:31.365Z,65.27
2023-03-29T07:40:59.048Z,65.05
2023-03-29T07:43:26.541Z,65.16
2023-03-29T07:45:54.150Z,64.96
2023-03-29T07:48:22.123Z,65.60
2023-03-29T07:50:49.619Z,65.89
2023-03-29T07:53:18.457Z,65.41
2023-03-29T07:55:49.021Z,64.88
2023-03-29T07:58:17.091Z,64.52
2023-03-29T08:00:44.606Z,65.01
2023-03-29T08:03:13.398Z,65.12
2023-03-29T08:05:42.062Z,64.76
2023-03-29T08:08:10.760Z,64.85
2023-03-29T08:10:40.039Z,64.59
2023-03-29T08:13:10.720Z,64.17
2023-03-29T08:15:39.836Z,63.62
2023-03-29T08:18:07.663Z,63.70
2023-03-29T08:20:35.370Z,63.58
2023-03-29T08:23:02.910Z,63.65
2023-03-29T08:25:30.812Z,63.23
2023-03-29T08:27:59.810Z,63.47
2023-03-29T08:30:27.351Z,63.41
2023-03-29T08:32:55.707Z,62.92
2023-03-29T08:35:23.372Z,63.07
2023-03-29T08:37:51.186Z,62.89
2023-03-29T08:40:22.580Z,63.16
2023-03-29T08:43:04.360Z,63.06
2023-03-29T08:45:38.691Z,63.14
2023-03-29T08:48:18.606Z,62.47
2023-03-29T08:50:53.756Z,62.85
2023-03-29T08:53:24.815Z,62.71
2023-03-29T08:55:56.511Z,62.69
2023-03-29T08:58:28.971Z,63.20
2023-03-29T09:00:58.800Z,63.24
2023-03-29T09:03:30.903Z,63.21
2023-03-29T09:06:03.104Z,63.16
2023-03-29T09:08:31.060Z,64.25
2023-03-29T09:11:35.113Z,65.02
2023-03-29T09:14:18.845Z,64.56
2023-03-29T09:16:54.052Z,64.57
2023-03-29T09:19:26.459Z,63.99
2023-03-29T09:22:02.838Z,64.18
2023-03-29T09:24:40.938Z,63.82
2023-03-29T09:27:11.718Z,63.77
2023-03-29T09:29:50.773Z,64.26
2023-03-29T09:32:23.219Z,64.11
2023-03-29T09:34:59.263Z,64.25
2023-03-29T09:37:33.155Z,63.72
2023-03-29T09:40:03.798Z,64.04
2023-03-29T09:42:32.666Z,64.31
2023-03-29T09:45:08.384Z,64.62
2023-03-29T09:47:39.807Z,64.33
2023-03-29T09:50:23.077Z,64.19
2023-03-29T09:52:57.482Z,64.32
2023-03-29T09:55:28.218Z,63.94
2023-03-29T09:57:58.963Z,63.63
2023-03-29T10:00:28.026Z,63.70
2023-03-29T10:02:59.910Z,64.18
2023-03-29T10:05:30.849Z,64.57
2023-03-29T10:08:01.088Z,64.07
2023-03-29T10:10:31.790Z,63.92
2023-03-29T10:13:03.978Z,64.02
2023-03-29T10:15:33.235Z,63.15
2023-03-29T10:18:03.285Z,63.90
2023-03-29T10:20:31.530Z,62.81
2023-03-29T10:23:00.169Z,63.34
2023-03-29T10:25:31.197Z,63.31
2023-03-29T10:28:07.404Z,62.32
2023-03-29T10:30:38.974Z,61.45
2023-03-29T10:33:08.926Z,61.41
2023-03-29T10:35:41.484Z,62.63
2023-03-29T10:38:14.931Z,61.55
2023-03-29T10:40:44.950Z,61.58
2023-03-29T10:43:14.433Z,62.15
2023-03-29T10:45:44.093Z,61.39
2023-03-29T10:48:14.900Z,62.36
2023-03-29T10:50:43.929Z,61.72
2023-03-29T10:53:17.548Z,62.33
2023-03-29T10:55:55.287Z,62.05
2023-03-29T10:58:35.548Z,61.99
2023-03-29T11:01:04.958Z,61.79
2023-03-29T11:03:49.643Z,60.61
2023-03-29T11:06:25.518Z,60.63
2023-03-29T11:08:57.726Z,60.60
2023-03-29T11:11:43.969Z,60.34
2023-03-29T11:14:22.989Z,60.75
2023-03-29T11:17:00.267Z,60.71
2023-03-29T11:19:52.732Z,60.35
2023-03-29T11:22:27.658Z,60.51
2023-03-29T11:25:10.960Z,60.15
2023-03-29T11:27:47.221Z,59.82
2023-03-29T11:30:23.762Z,59.01
2023-03-29T11:33:01.553Z,59.35
2023-03-29T11:35:44.540Z,58.42
2023-03-29T11:38:22.781Z,58.01
2023-03-29T11:40:57.552Z,58.10
2023-03-29T11:43:31.163Z,57.79
2023-03-29T11:46:04.396Z,57.23
2023-03-29T11:48:37.912Z,57.33
2023-03-29T11:51:14.011Z,56.73
2023-03-29T11:53:49.892Z,56.23
2023-03-29T11:56:23.333Z,55.78
2023-03-29T11:58:56.227Z,56.03
2023-03-29T12:01:32.366Z,55.73
2023-03-29T12:04:07.113Z,56.23
2023-03-29T12:06:42.248Z,56.05
2023-03-29T12:09:18.253Z,55.69
2023-03-29T12:11:51.820Z,55.55
2023-03-29T12:14:27.379Z,55.14
2023-03-29T12:17:00.865Z,54.65
2023-03-29T12:19:39.185Z,54.22
2023-03-29T12:22:10.510Z,55.40
2023-03-29T12:24:42.489Z,55.82
2023-03-29T12:27:23.937Z,55.24
2023-03-29T12:30:09.662Z,55.71
2023-03-29T12:32:49.905Z,55.70
2023-03-29T12:35:28.546Z,56.15
2023-03-29T12:38:08.190Z,56.45
2023-03-29T12:40:43.124Z,56.64
2023-03-29T12:43:20.740Z,56.79
2023-03-29T12:45:49.228Z,56.93
2023-03-29T12:48:19.546Z,57.61
2023-03-29T12:50:52.268Z,57.63
2023-03-29T12:53:24.156Z,57.49
2023-03-29T12:56:10.116Z,58.24
2023-03-29T12:58:43.585Z,57.86
2023-03-29T13:01:24.429Z,58.04
2023-03-29T13:03:57.350Z,58.04
2023-03-29T13:06:33.231Z,58.63
2023-03-29T13:09:20.193Z,59.01
2023-03-29T13:11:53.415Z,59.03
2023-03-29T13:14:22.912Z,59.10
2023-03-29T13:16:50.968Z,59.37
2023-03-29T13:19:31.910Z,58.66
2023-03-29T13:22:13.826Z,58.20
2023-03-29T13:25:01.124Z,57.91
2023-03-29T13:27:39.546Z,57.62
2023-03-29T13:30:24.777Z,57.09
2023-03-29T13:33:05.171Z,57.64
2023-03-29T13:35:46.006Z,56.83
2023-03-29T13:38:20.807Z,56.96
2023-03-29T13:41:00.728Z,56.55
2023-03-29T13:43:34.165Z,56.09
2023-03-29T13:46:23.032Z,56.28
2023-03-29T13:49:01.027Z,57.81
2023-03-29T13:51:35.197Z,57.43
2023-03-29T13:54:12.953Z,58.24
2023-03-29T13:56:56.123Z,57.79
2023-03-29T13:59:32.831Z,57.96
2023-03-29T14:02:02.804Z,57.85
2023-03-29T14:04:37.575Z,57.99
2023-03-29T14:07:07.390Z,57.77
2023-03-29T14:09:42.168Z,57.46
2023-03-29T14:12:12.263Z,57.23
2023-03-29T14:14:56.055Z,56.89
2023-03-29T14:17:26.573Z,56.73
2023-03-29T14:19:57.852Z,57.10
2023-03-29T14:22:25.625Z,56.57
2023-03-29T14:24:58.231Z,56.26
2023-03-29T14:27:25.980Z,56.10
2023-03-29T14:29:53.503Z,55.96
2023-03-29T14:32:29.720Z,56.49
2023-03-29T14:34:57.879Z,56.05
2023-03-29T14:37:28.510Z,56.21
2023-03-29T14:39:59.644Z,55.92
2023-03-29T14:42:29.219Z,55.91
2023-03-29T14:44:59.570Z,56.46
2023-03-29T14:47:30.102Z,56.19
2023-03-29T14:50:00.727Z,56.66
2023-03-29T14:52:30.293Z,57.51
2023-03-29T14:55:01.797Z,57.80
2023-03-29T14:57:35.061Z,58.30
2023-03-29T15:00:13.416Z,57.57
2023-03-29T15:02:50.860Z,57.01
2023-03-29T15:05:32.510Z,57.75
2023-03-29T15:08:01.327Z,56.89
2023-03-29T15:10:32.896Z,57.74
2023-03-29T15:13:03.159Z,57.17
2023-03-29T15:15:34.514Z,56.83
2023-03-29T15:18:03.434Z,56.31
2023-03-29T15:20:34.667Z,56.26
2023-03-29T15:23:04.552Z,56.40
2023-03-29T15:25:38.482Z,56.71
2023-03-29T15:28:06.311Z,56.84
2023-03-29T15:30:36.555Z,56.46
2023-03-29T15:33:17.770Z,56.76
2023-03-29T15:35:50.366Z,56.87
2023-03-29T15:38:18.046Z,57.04
2023-03-29T15:40:47.798Z,56.89
2023-03-29T15:43:15.557Z,57.04
2023-03-29T15:45:43.478Z,57.11
2023-03-29T15:48:16.272Z,57.26
2023-03-29T15:50:44.993Z,57.15
2023-03-29T15:53:15.597Z,57.34
2023-03-29T15:55:46.754Z,57.30
2023-03-29T15:58:18.879Z,57.01
2023-03-29T16:00:50.997Z,57.27
2023-03-29T16:03:18.628Z,57.55
2023-03-29T16:05:47.370Z,57.63
2023-03-29T16:08:15.844Z,57.57
2023-03-29T16:10:44.605Z,57.67
2023-03-29T16:13:14.327Z,58.21
2023-03-29T16:15:43.868Z,57.85
2023-03-29T16:18:11.339Z,58.09
2023-03-29T16:20:39.157Z,57.76
2023-03-29T16:23:09.270Z,57.93
2023-03-29T16:25:39.682Z,58.22
2023-03-29T16:28:08.893Z,58.27
2023-03-29T16:30:38.406Z,55.30
2023-03-29T16:33:08.437Z,57.07
2023-03-29T16:35:39.737Z,58.43
2023-03-29T16:38:08.537Z,57.80
2023-03-29T16:40:36.521Z,57.40
2023-03-29T16:43:04.505Z,57.82
2023-03-29T16:45:32.009Z,59.16
2023-03-29T16:47:59.779Z,59.56
2023-03-29T16:50:28.633Z,61.07
2023-03-29T16:52:56.185Z,62.65
2023-03-29T16:55:23.887Z,62.23
2023-03-29T16:57:51.771Z,62.96
2023-03-29T17:00:21.782Z,63.03
2023-03-29T17:02:50.488Z,63.06
2023-03-29T17:05:19.375Z,63.70
2023-03-29T17:07:48.193Z,64.13
2023-03-29T17:10:15.931Z,65.59
2023-03-29T17:12:43.396Z,64.47
2023-03-29T17:15:11.202Z,64.81
2023-03-29T17:17:38.820Z,65.81
2023-03-29T17:20:11.698Z,64.90
2023-03-29T17:22:39.312Z,65.98
2023-03-29T17:25:09.842Z,65.24
2023-03-29T17:27:38.262Z,65.23
2023-03-29T17:30:06.546Z,65.82
2023-03-29T17:32:34.109Z,65.76
2023-03-29T17:35:01.623Z,65.40
2023-03-29T17:37:29.232Z,65.22
2023-03-29T17:39:56.706Z,65.80
2023-03-29T17:42:25.810Z,65.31
2023-03-29T17:44:53.603Z,65.05
2023-03-29T17:47:21.061Z,65.42
2023-03-29T17:49:48.531Z,65.76
2023-03-29T17:52:16.025Z,64.98
2023-03-29T17:54:43.524Z,65.25
2023-03-29T17:57:11.001Z,64.75
2023-03-29T17:59:39.870Z,64.99
2023-03-29T18:02:07.817Z,65.12
2023-03-29T18:04:35.519Z,65.10
2023-03-29T18:07:02.997Z,65.89
2023-03-29T18:09:31.132Z,65.14
2023-03-29T18:11:58.628Z,64.88
2023-03-29T18:14:26.284Z,65.87
2023-03-29T18:16:55.696Z,66.16
2023-03-29T18:19:23.386Z,65.34
2023-03-29T18:21:50.975Z,65.42
2023-03-29T18:24:18.477Z,65.82
2023-03-29T18:26:45.937Z,66.15
2023-03-29T18:29:13.485Z,66.17
2023-03-29T18:31:40.979Z,65.65
2023-03-29T18:34:09.813Z,64.24
2023-03-29T18:36:37.464Z,63.76
2023-03-29T18:39:06.159Z,63.37
2023-03-29T18:41:34.702Z,62.91
2023-03-29T18:44:02.347Z,62.65
2023-03-29T18:46:31.120Z,62.46
2023-03-29T18:48:59.446Z,62.03
2023-03-29T18:51:29.144Z,62.02
2023-03-29T18:53:56.925Z,62.14
2023-03-29T18:56:24.488Z,62.49
2023-03-29T18:58:52.327Z,62.47
2023-03-29T19:01:19.812Z,62.08
2023-03-29T19:03:47.860Z,62.61
2023-03-29T19:06:15.846Z,62.99
2023-03-29T19:08:45.088Z,62.98
2023-03-29T19:11:14.171Z,63.34
2023-03-29T19:13:41.872Z,63.09
2023-03-29T19:16:09.617Z,63.07
2023-03-29T19:18:37.200Z,63.32
2023-03-29T19:21:04.706Z,63.43
2023-03-29T19:23:32.161Z,63.18
2023-03-29T19:26:03.295Z,63.20
2023-03-29T19:28:31.005Z,62.91
2023-03-29T19:31:00.954Z,63.16
2023-03-29T19:33:29.076Z,63.45
2023-03-29T19:35:56.676Z,62.58
2023-03-29T19:38:24.588Z,63.32
2023-03-29T19:40:53.072Z,63.37
2023-03-29T19:43:21.918Z,64.49
2023-03-29T19:45:50.905Z,63.94
2023-03-29T19:48:23.594Z,64.35
2023-03-29T19:50:52.199Z,64.18
2023-03-29T19:53:19.662Z,65.04
2023-03-29T19:55:48.597Z,65.33
2023-03-29T19:58:16.026Z,65.47
2023-03-29T20:00:45.039Z,65.43
2023-03-29T20:03:13.837Z,65.88
2023-03-29T20:05:41.786Z,65.58
2023-03-29T20:08:09.804Z,65.76
2023-03-29T20:10:37.428Z,65.59
2023-03-29T20:13:06.336Z,65.68
2023-03-29T20:15:33.777Z,66.52
2023-03-29T20:18:03.325Z,66.78
2023-03-29T20:20:31.640Z,67.11
2023-03-29T20:23:04.509Z,66.77
2023-03-29T20:25:32.829Z,66.59
2023-03-29T20:28:00.470Z,66.83
2023-03-29T20:30:28.209Z,66.41
2023-03-29T20:32:55.663Z,66.26
2023-03-29T20:35:24.445Z,66.60
2023-03-29T20:37:52.115Z,66.60
2023-03-29T20:40:20.705Z,67.07
2023-03-29T20:42:48.869Z,66.36
2023-03-29T20:45:19.185Z,67.38
2023-03-29T20:47:50.161Z,67.21
2023-03-29T20:50:19.953Z,66.68
2023-03-29T20:52:48.750Z,66.66
2023-03-29T20:55:21.984Z,66.89
2023-03-29T20:57:50.112Z,66.62
2023-03-29T21:00:19.558Z,66.34
2023-03-29T21:02:47.585Z,66.37
2023-03-29T21:05:15.627Z,66.61
2023-03-29T21:07:44.665Z,66.24
2023-03-29T21:10:13.625Z,65.99
2023-03-29T21:12:41.744Z,66.23
2023-03-29T21:15:10.306Z,66.73
2023-03-29T21:17:38.203Z,66.16
2023-03-29T21:20:11.012Z,65.75
2023-03-29T21:22:38.940Z,65.61
2023-03-29T21:25:08.035Z,66.56
2023-03-29T21:27:37.169Z,66.27
2023-03-29T21:30:05.321Z,65.85
2023-03-29T21:32:32.819Z,65.91
2023-03-29T21:35:00.342Z,65.63
2023-03-29T21:37:27.864Z,65.32
2023-03-29T21:39:55.282Z,65.30
2023-03-29T21:42:22.707Z,65.72
2023-03-29T21:44:51.560Z,65.77
2023-03-29T21:47:19.244Z,65.25
2023-03-29T21:49:46.716Z,64.99
2023-03-29T21:52:14.274Z,65.40
2023-03-29T21:54:41.835Z,65.35
2023-03-29T21:57:09.472Z,65.59
2023-03-29T21:59:37.030Z,64.85
2023-03-29T22:02:05.919Z,65.55
2023-03-29T22:04:37.096Z,65.28
2023-03-29T22:07:05.812Z,65.13
2023-03-29T22:09:34.563Z,65.20
2023-03-29T22:12:02.114Z,64.96
2023-03-29T22:14:30.278Z,65.00
2023-03-29T22:16:57.893Z,64.29
2023-03-29T22:19:26.760Z,65.16
2023-03-29T22:22:01.150Z,64.68
2023-03-29T22:24:29.192Z,64.48
2023-03-29T22:26:56.846Z,64.58
2023-03-29T22:29:24.388Z,64.30
2023-03-29T22:31:51.916Z,65.15
2023-03-29T22:34:19.378Z,64.89
2023-03-29T22:36:48.176Z,64.35
2023-03-29T22:39:15.841Z,63.87
2023-03-29T22:41:43.297Z,64.70
2023-03-29T22:44:10.868Z,63.86
2023-03-29T22:46:38.513Z,64.37
2023-03-29T22:49:06.109Z,63.27
2023-03-29T22:51:33.583Z,63.57
2023-03-29T22:54:02.392Z,62.95
2023-03-29T22:56:29.873Z,63.52
2023-03-29T22:58:57.369Z,63.28
2023-03-29T23:01:24.987Z,63.27
2023-03-29T23:03:52.513Z,63.08
2023-03-29T23:06:20.335Z,62.30
2023-03-29T23:08:47.771Z,62.72
2023-03-29T23:11:16.578Z,62.79
2023-03-29T23:13:44.038Z,62.75
2023-03-29T23:16:11.549Z,61.91
2023-03-29T23:18:39.101Z,62.63
2023-03-29T23:21:08.743Z,62.22
2023-03-29T23:23:36.826Z,62.03
2023-03-29T23:26:04.566Z,62.11
2023-03-29T23:28:34.289Z,62.10
2023-03-29T23:31:04.415Z,61.30
2023-03-29T23:33:34.896Z,61.71
2023-03-29T23:36:04.250Z,61.10
2023-03-29T23:38:33.061Z,61.60
2023-03-29T23:41:02.364Z,61.40
2023-03-29T23:43:32.434Z,61.24
2023-03-29T23:46:02.972Z,61.28
2023-03-29T23:48:31.518Z,60.75
2023-03-29T23:50:59.229Z,60.59
2023-03-29T23:53:28.468Z,60.71
2023-03-29T23:55:58.079Z,60.89
2023-03-29T23:58:25.569Z,60.95
